createdAt,value
2022-09-05T00:02:49.022Z,22.98
2022-09-05T00:05:32.641Z,22.97
2022-09-05T00:08:08.456Z,22.97
2022-09-05T00:11:16.832Z,22.97
2022-09-05T00:13:32.704Z,22.96
2022-09-05T00:16:06.491Z,22.96
2022-09-05T00:24:23.269Z,22.96
2022-09-05T00:24:26.770Z,22.96
2022-09-05T00:25:01.039Z,22.96
2022-09-05T00:27:28.476Z,22.95
2022-09-05T00:31:07.269Z,22.95
2022-09-05T00:33:16.960Z,22.95
2022-09-05T00:35:53.847Z,22.95
2022-09-05T00:38:23.614Z,22.94
2022-09-05T00:41:05.173Z,22.94
2022-09-05T00:43:34.604Z,22.92
2022-09-05T00:46:04.203Z,22.93
2022-09-05T00:48:36.599Z,22.94
2022-09-05T00:51:14.157Z,22.94
2022-09-05T00:53:47.953Z,22.93
2022-09-05T00:56:34.816Z,22.93
2022-09-05T00:59:23.353Z,22.93
2022-09-05T01:01:54.770Z,22.92
2022-09-05T01:04:32.345Z,22.92
2022-09-05T01:07:16.856Z,22.92
2022-09-05T01:09:48.415Z,22.92
2022-09-05T01:12:26.943Z,22.92
2022-09-05T01:15:04.898Z,22.92
2022-09-05T01:17:39.647Z,22.91
2022-09-05T01:20:38.106Z,22.90
2022-09-05T01:23:47.714Z,22.89
2022-09-05T01:26:41.387Z,22.89
2022-09-05T01:29:19.363Z,22.89
2022-09-05T01:31:58.091Z,22.88
2022-09-05T01:34:31.776Z,22.87
2022-09-05T01:37:03.768Z,22.87
2022-09-05T01:40:12.073Z,22.87
2022-09-05T01:42:32.548Z,22.87
2022-09-05T01:45:03.664Z,22.86
2022-09-05T01:47:41.176Z,22.87
2022-09-05T01:50:18.255Z,22.87
2022-09-05T01:52:59.231Z,22.86
2022-09-05T01:56:04.214Z,22.86
2022-09-05T01:58:29.093Z,22.86
2022-09-05T02:01:25.581Z,22.85
2022-09-05T02:03:53.743Z,22.86
2022-09-05T02:06:40.185Z,22.85
2022-09-05T02:09:22.515Z,22.84
2022-09-05T02:11:53.174Z,22.85
2022-09-05T02:14:34.425Z,22.83
2022-09-05T02:17:28.575Z,22.84
2022-09-05T02:20:09.485Z,22.84
2022-09-05T02:22:43.360Z,22.83
2022-09-05T02:25:40.281Z,22.84
2022-09-05T02:28:07.043Z,22.82
2022-09-05T02:30:37.027Z,22.82
2022-09-05T02:33:26.505Z,22.83
2022-09-05T02:35:57.049Z,22.83
2022-09-05T02:40:41.404Z,22.82
2022-09-05T02:45:08.516Z,22.83
2022-09-05T02:45:14.648Z,22.82
2022-09-05T02:47:01.430Z,22.82
2022-09-05T02:52:08.930Z,22.81
2022-09-05T02:57:29.555Z,22.80
2022-09-05T02:57:32.960Z,22.81
2022-09-05T02:58:24.474Z,22.80
2022-09-05T03:00:55.693Z,22.80
2022-09-05T03:03:28.653Z,22.79
2022-09-05T03:06:01.124Z,22.79
2022-09-05T03:08:41.031Z,22.78
2022-09-05T03:11:42.888Z,22.78
2022-09-05T03:14:50.613Z,22.78
2022-09-05T03:17:53.520Z,22.77
2022-09-05T03:21:09.953Z,22.76
2022-09-05T03:24:06.757Z,22.76
2022-09-05T03:27:02.911Z,22.75
2022-09-05T03:29:58.606Z,22.76
2022-09-05T03:33:03.211Z,22.76
2022-09-05T03:36:19.022Z,22.74
2022-09-05T03:39:09.335Z,22.74
2022-09-05T03:41:45.555Z,22.74
2022-09-05T03:44:22.178Z,22.74
2022-09-05T03:47:04.796Z,22.73
2022-09-05T03:51:39.427Z,22.74
2022-09-05T03:57:14.288Z,22.73
2022-09-05T03:57:16.806Z,22.74
2022-09-05T03:59:00.060Z,22.72
2022-09-05T04:03:32.939Z,22.73
2022-09-05T04:08:23.746Z,22.72
2022-09-05T04:08:27.923Z,22.72
2022-09-05T04:10:10.652Z,22.72
2022-09-05T04:12:50.959Z,22.72
2022-09-05T04:15:29.590Z,22.72
2022-09-05T04:18:03.898Z,22.72
2022-09-05T04:20:40.449Z,22.72
2022-09-05T04:23:24.970Z,22.71
2022-09-05T04:26:12.007Z,22.71
2022-09-05T04:28:53.374Z,22.71
2022-09-05T04:31:27.812Z,22.70
2022-09-05T04:34:02.847Z,22.71
2022-09-05T04:36:33.125Z,22.71
2022-09-05T04:39:09.723Z,22.70
2022-09-05T04:41:41.100Z,22.71
2022-09-05T04:44:13.031Z,22.71
2022-09-05T04:46:48.811Z,22.71
2022-09-05T04:49:18.255Z,22.72
2022-09-05T04:52:04.351Z,22.71
2022-09-05T04:54:36.586Z,22.70
2022-09-05T04:57:14.228Z,22.69
2022-09-05T05:04:02.353Z,22.70
2022-09-05T05:06:08.227Z,22.68
2022-09-05T05:06:23.757Z,22.70
2022-09-05T05:08:17.724Z,22.69
2022-09-05T05:15:35.260Z,22.68
2022-09-05T05:18:11.816Z,22.68
2022-09-05T05:18:13.923Z,22.69
2022-09-05T05:19:40.795Z,22.68
2022-09-05T05:22:14.996Z,22.69
2022-09-05T05:24:44.684Z,22.69
2022-09-05T05:27:17.531Z,22.70
2022-09-05T05:29:48.712Z,22.69
2022-09-05T05:32:44.996Z,22.69
2022-09-05T05:35:14.618Z,22.69
2022-09-05T05:37:44.043Z,22.69
2022-09-05T05:40:14.403Z,22.70
2022-09-05T05:42:42.793Z,22.69
2022-09-05T05:45:18.167Z,22.69
2022-09-05T05:47:49.055Z,22.70
2022-09-05T05:50:26.906Z,22.71
2022-09-05T05:53:11.515Z,22.71
2022-09-05T05:56:12.751Z,22.72
2022-09-05T05:59:09.521Z,22.72
2022-09-05T06:02:05.505Z,22.72
2022-09-05T06:05:16.080Z,22.66
2022-09-05T06:10:35.402Z,22.58
2022-09-05T06:14:58.129Z,22.53
2022-09-05T06:15:08.827Z,22.49
2022-09-05T06:17:55.985Z,22.46
2022-09-05T06:22:10.393Z,22.43
2022-09-05T06:24:13.209Z,22.43
2022-09-05T06:27:16.926Z,22.42
2022-09-05T06:29:51.341Z,22.40
2022-09-05T06:32:31.187Z,22.40
2022-09-05T06:35:25.934Z,22.43
2022-09-05T06:38:02.041Z,22.47
2022-09-05T06:40:34.491Z,22.50
2022-09-05T06:43:18.875Z,22.47
2022-09-05T06:45:58.935Z,22.39
2022-09-05T06:48:45.858Z,22.35
2022-09-05T06:51:45.002Z,22.31
2022-09-05T06:54:59.503Z,22.28
2022-09-05T06:57:53.527Z,22.25
2022-09-05T07:00:23.756Z,22.24
2022-09-05T07:03:13.596Z,22.22
2022-09-05T07:05:45.320Z,22.20
2022-09-05T07:08:36.419Z,22.20
2022-09-05T07:11:15.860Z,22.18
2022-09-05T07:13:54.691Z,22.17
2022-09-05T07:16:37.140Z,22.17
2022-09-05T07:19:14.324Z,22.18
2022-09-05T07:21:44.612Z,22.17
2022-09-05T07:24:22.108Z,22.16
2022-09-05T07:27:09.012Z,22.16
2022-09-05T07:29:53.491Z,22.15
2022-09-05T07:32:30.515Z,22.13
2022-09-05T07:34:58.840Z,22.13
2022-09-05T07:37:27.948Z,22.13
2022-09-05T07:39:57.470Z,22.14
2022-09-05T07:42:32.545Z,22.17
2022-09-05T07:45:06.464Z,22.18
2022-09-05T07:47:35.228Z,22.19
2022-09-05T07:51:17.307Z,22.18
2022-09-05T07:56:50.434Z,22.16
2022-09-05T07:56:52.991Z,22.15
2022-09-05T07:58:41.428Z,22.16
2022-09-05T08:01:12.718Z,22.16
2022-09-05T08:03:41.003Z,22.18
2022-09-05T08:06:10.762Z,22.20
2022-09-05T08:09:05.647Z,22.22
2022-09-05T08:11:37.181Z,22.24
2022-09-05T08:14:41.771Z,22.26
2022-09-05T08:16:55.740Z,22.28
2022-09-05T08:19:40.644Z,22.28
2022-09-05T08:22:09.220Z,22.29
2022-09-05T08:24:39.664Z,22.29
2022-09-05T08:27:16.192Z,22.30
2022-09-05T08:29:46.149Z,22.31
2022-09-05T08:32:16.841Z,22.31
2022-09-05T08:34:46.329Z,22.33
2022-09-05T08:37:17.839Z,22.34
2022-09-05T08:39:51.163Z,22.35
2022-09-05T08:42:40.450Z,22.36
2022-09-05T08:46:43.162Z,22.36
2022-09-05T08:48:15.219Z,22.37
2022-09-05T08:51:09.047Z,22.38
2022-09-05T08:53:48.861Z,22.39
2022-09-05T08:56:20.947Z,22.40
2022-09-05T08:59:27.896Z,22.41
2022-09-05T09:02:46.185Z,22.40
2022-09-05T09:05:02.498Z,22.42
2022-09-05T09:07:50.865Z,22.42
2022-09-05T09:10:32.773Z,22.43
2022-09-05T09:13:11.764Z,22.46
2022-09-05T09:15:40.413Z,22.47
2022-09-05T09:18:14.252Z,22.49
2022-09-05T09:20:49.345Z,22.50
2022-09-05T09:23:29.047Z,22.52
2022-09-05T09:26:06.548Z,22.54
2022-09-05T09:28:50.235Z,22.56
2022-09-05T09:31:24.684Z,22.57
2022-09-05T09:33:57.818Z,22.60
2022-09-05T09:37:03.752Z,22.63
2022-09-05T09:39:38.268Z,22.66
2022-09-05T09:42:34.130Z,22.68
2022-09-05T09:45:29.694Z,22.71
2022-09-05T09:48:19.286Z,22.72
2022-09-05T09:51:06.293Z,22.73
2022-09-05T09:53:44.508Z,22.75
2022-09-05T09:56:39.064Z,22.76
2022-09-05T09:59:29.543Z,22.77
2022-09-05T10:03:49.971Z,22.78
2022-09-05T10:10:39.331Z,22.81
2022-09-05T10:10:51.763Z,22.83
2022-09-05T10:15:23.730Z,22.83
2022-09-05T10:18:39.775Z,22.82
2022-09-05T10:21:35.513Z,22.83
2022-09-05T10:24:25.858Z,22.84
2022-09-05T10:27:13.159Z,22.85
2022-09-05T10:29:46.910Z,22.85
2022-09-05T10:35:10.779Z,22.87
2022-09-05T10:35:22.460Z,22.89
2022-09-05T10:37:55.365Z,22.90
2022-09-05T10:40:26.956Z,22.92
2022-09-05T10:43:00.916Z,22.93
2022-09-05T10:45:38.763Z,22.93
2022-09-05T10:48:13.737Z,22.95
2022-09-05T10:50:44.516Z,22.96
2022-09-05T10:53:39.250Z,22.98
2022-09-05T10:56:14.595Z,22.99
2022-09-05T10:59:54.092Z,23.00
2022-09-05T11:02:26.863Z,23.01
2022-09-05T11:04:49.772Z,23.02
2022-09-05T11:07:29.345Z,23.03
2022-09-05T11:10:12.195Z,23.04
2022-09-05T11:13:10.916Z,23.07
2022-09-05T11:16:03.853Z,23.09
2022-09-05T11:18:55.693Z,23.10
2022-09-05T11:21:29.063Z,23.12
2022-09-05T11:23:58.038Z,23.11
2022-09-05T11:26:32.456Z,23.12
2022-09-05T11:29:04.363Z,23.12
2022-09-05T11:31:44.790Z,23.12
2022-09-05T11:40:06.721Z,23.12
2022-09-05T11:40:10.063Z,23.12
2022-09-05T11:41:05.174Z,23.12
2022-09-05T11:44:24.878Z,23.13
2022-09-05T11:47:28.031Z,23.13
2022-09-05T11:50:09.121Z,23.14
2022-09-05T11:53:06.694Z,23.15
2022-09-05T11:55:53.308Z,23.16
2022-09-05T11:58:45.142Z,23.18
2022-09-05T12:01:41.568Z,23.18
2022-09-05T12:04:42.075Z,23.19
2022-09-05T12:07:31.501Z,23.20
2022-09-05T12:10:47.779Z,23.22
2022-09-05T12:13:37.270Z,23.23
2022-09-05T12:16:10.193Z,23.24
2022-09-05T12:18:43.884Z,23.26
2022-09-05T12:21:24.579Z,23.27
2022-09-05T12:24:36.830Z,23.27
2022-09-05T12:27:40.716Z,23.28
2022-09-05T12:29:48.702Z,23.29
2022-09-05T12:33:52.408Z,23.29
2022-09-05T12:36:06.058Z,23.31
2022-09-05T12:40:23.694Z,23.31
2022-09-05T12:41:44.277Z,23.31
2022-09-05T12:44:40.185Z,23.31
2022-09-05T12:46:38.799Z,23.31
2022-09-05T12:49:10.591Z,23.32
2022-09-05T12:51:46.097Z,23.32
2022-09-05T12:54:33.796Z,23.32
2022-09-05T13:00:24.212Z,23.33
2022-09-05T13:03:07.158Z,23.33
2022-09-05T13:03:09.053Z,23.32
2022-09-05T13:05:47.472Z,23.32
2022-09-05T13:08:21.693Z,23.32
2022-09-05T13:14:49.207Z,23.34
2022-09-05T13:14:54.648Z,23.33
2022-09-05T13:16:35.041Z,23.34
2022-09-05T13:19:07.796Z,23.33
2022-09-05T13:21:37.833Z,23.34
2022-09-05T13:24:10.308Z,23.34
2022-09-05T13:26:41.046Z,23.35
2022-09-05T13:29:15.347Z,23.34
2022-09-05T13:38:06.458Z,23.35
2022-09-05T13:38:17.741Z,23.36
2022-09-05T13:38:42.011Z,23.36
2022-09-05T13:40:38.534Z,23.36
2022-09-05T13:43:10.151Z,23.37
2022-09-05T13:45:57.717Z,23.37
2022-09-05T13:51:37.353Z,23.40
2022-09-05T13:54:41.325Z,23.41
2022-09-05T13:57:31.839Z,23.42
2022-09-05T14:00:28.980Z,23.41
2022-09-05T14:03:37.644Z,23.42
2022-09-05T14:06:45.860Z,23.44
2022-09-05T14:09:41.618Z,23.44
2022-09-05T14:12:13.071Z,23.45
2022-09-05T14:17:54.229Z,23.45
2022-09-05T14:20:42.909Z,23.45
2022-09-05T14:23:15.239Z,23.44
2022-09-05T14:25:44.576Z,23.44
2022-09-05T14:28:14.732Z,23.44
2022-09-05T14:34:36.925Z,23.45
2022-09-05T14:37:42.763Z,23.44
2022-09-05T14:37:50.570Z,23.44
2022-09-05T14:39:45.810Z,23.44
2022-09-05T14:42:29.135Z,23.44
2022-09-05T14:45:22.868Z,23.44
2022-09-05T14:48:29.103Z,23.45
2022-09-05T14:51:14.626Z,23.44
2022-09-05T14:53:59.985Z,23.44
2022-09-05T15:02:41.567Z,23.45
2022-09-05T15:02:51.668Z,23.45
2022-09-05T15:02:57.272Z,23.44
2022-09-05T15:05:21.183Z,23.44
2022-09-05T15:07:50.026Z,23.45
2022-09-05T15:12:17.767Z,23.44
2022-09-05T15:13:25.861Z,23.45
2022-09-05T15:16:02.518Z,23.45
2022-09-05T15:18:32.483Z,23.44
2022-09-05T15:21:33.302Z,23.46
2022-09-05T15:24:13.724Z,23.45
2022-09-05T15:26:52.564Z,23.45
2022-09-05T15:29:25.221Z,23.45
2022-09-05T15:32:09.190Z,23.46
2022-09-05T15:34:38.406Z,23.46
2022-09-05T15:37:23.351Z,23.46
2022-09-05T15:40:02.080Z,23.47
2022-09-05T15:42:32.307Z,23.46
2022-09-05T15:45:11.066Z,23.46
2022-09-05T15:47:40.584Z,23.47
2022-09-05T15:50:21.923Z,23.45
2022-09-05T15:52:55.441Z,23.47
2022-09-05T15:55:25.154Z,23.46
2022-09-05T15:57:55.267Z,23.47
2022-09-05T16:00:42.026Z,23.46
2022-09-05T16:04:42.210Z,23.46
2022-09-05T16:10:29.344Z,23.46
2022-09-05T16:10:48.666Z,23.46
2022-09-05T16:12:14.494Z,23.46
2022-09-05T16:14:45.236Z,23.46
2022-09-05T16:23:13.153Z,23.47
2022-09-05T16:23:32.498Z,23.46
2022-09-05T16:23:39.420Z,23.46
2022-09-05T16:26:07.840Z,23.46
2022-09-05T16:28:39.471Z,23.45
2022-09-05T16:31:13.785Z,23.45
2022-09-05T16:33:43.403Z,23.47
2022-09-05T16:36:16.246Z,23.47
2022-09-05T16:38:48.879Z,23.48
2022-09-05T16:41:24.067Z,23.47
2022-09-05T16:43:54.721Z,23.49
2022-09-05T16:46:23.827Z,23.47
2022-09-05T16:48:54.889Z,23.48
2022-09-05T16:51:35.561Z,23.48
2022-09-05T16:54:07.680Z,23.48
2022-09-05T16:56:41.162Z,23.48
2022-09-05T16:59:10.903Z,23.48
2022-09-05T17:01:54.934Z,23.48
2022-09-05T17:05:04.266Z,23.47
2022-09-05T17:07:56.480Z,23.49
2022-09-05T17:10:26.812Z,23.48
2022-09-05T17:12:55.009Z,23.47
2022-09-05T17:15:26.165Z,23.47
2022-09-05T17:18:19.488Z,23.47
2022-09-05T17:20:49.401Z,23.46
2022-09-05T17:29:15.469Z,23.47
2022-09-05T17:29:37.959Z,23.45
2022-09-05T17:29:39.206Z,23.46
2022-09-05T17:32:00.562Z,23.46
2022-09-05T17:34:49.793Z,23.45
2022-09-05T17:37:47.473Z,23.45
2022-09-05T17:40:42.797Z,23.44
2022-09-05T17:43:16.555Z,23.43
2022-09-05T17:46:13.232Z,23.42
2022-09-05T17:49:19.631Z,23.43
2022-09-05T17:52:18.353Z,23.43
2022-09-05T17:54:49.570Z,23.43
2022-09-05T17:57:39.342Z,23.43
2022-09-05T18:00:44.791Z,23.43
2022-09-05T18:03:13.085Z,23.44
2022-09-05T18:06:03.852Z,23.43
2022-09-05T18:11:44.909Z,23.43
2022-09-05T18:14:46.882Z,23.43
2022-09-05T18:18:02.796Z,23.43
2022-09-05T18:20:35.635Z,23.42
2022-09-05T18:23:37.162Z,23.41
2022-09-05T18:26:17.852Z,23.41
2022-09-05T18:28:56.345Z,23.41
2022-09-05T18:31:59.167Z,23.39
2022-09-05T18:34:46.690Z,23.39
2022-09-05T18:37:59.505Z,23.39
2022-09-05T18:40:53.991Z,23.39
2022-09-05T18:43:28.035Z,23.38
2022-09-05T18:46:01.120Z,23.38
2022-09-05T18:48:45.690Z,23.37
2022-09-05T18:51:35.663Z,23.37
2022-09-05T18:54:09.643Z,23.37
2022-09-05T18:57:27.010Z,23.37
2022-09-05T18:59:41.608Z,23.36
2022-09-05T19:02:41.123Z,23.36
2022-09-05T19:05:15.768Z,23.35
2022-09-05T19:07:48.295Z,23.35
2022-09-05T19:10:35.770Z,23.36
2022-09-05T19:13:10.552Z,23.34
2022-09-05T19:15:48.158Z,23.34
2022-09-05T19:18:37.103Z,23.34
2022-09-05T19:21:12.109Z,23.33
2022-09-05T19:23:44.555Z,23.33
2022-09-05T19:26:12.864Z,23.33
2022-09-05T19:36:46.106Z,23.32
2022-09-05T19:36:52.443Z,23.32
2022-09-05T19:37:06.989Z,23.32
2022-09-05T19:37:24.014Z,23.30
2022-09-05T19:42:44.908Z,23.30
2022-09-05T19:47:31.703Z,23.29
2022-09-05T19:47:49.137Z,23.29
2022-09-05T19:48:25.463Z,23.27
2022-09-05T19:50:56.556Z,23.27
2022-09-05T19:53:25.805Z,23.28
2022-09-05T19:55:54.560Z,23.27
2022-09-05T19:58:23.403Z,23.27
2022-09-05T20:01:02.351Z,23.26
2022-09-05T20:03:38.845Z,23.27
2022-09-05T20:06:28.988Z,23.26
2022-09-05T20:09:09.106Z,23.26
2022-09-05T20:11:45.911Z,23.25
2022-09-05T20:14:23.128Z,23.25
2022-09-05T20:16:52.273Z,23.25
2022-09-05T20:19:25.520Z,23.24
2022-09-05T20:22:11.477Z,23.24
2022-09-05T20:24:49.349Z,23.23
2022-09-05T20:27:17.594Z,23.24
2022-09-05T20:29:54.744Z,23.23
2022-09-05T20:32:27.823Z,23.23
2022-09-05T20:37:00.880Z,23.22
2022-09-05T20:43:17.348Z,23.21
2022-09-05T20:43:20.807Z,23.22
2022-09-05T20:43:58.039Z,23.20
2022-09-05T20:48:11.237Z,23.21
2022-09-05T20:54:12.674Z,23.20
2022-09-05T20:54:23.206Z,23.19
2022-09-05T20:55:39.054Z,23.20
2022-09-05T20:57:50.844Z,23.19
2022-09-05T21:00:21.447Z,23.18
2022-09-05T21:02:50.783Z,23.19
2022-09-05T21:05:25.496Z,23.19
2022-09-05T21:08:06.996Z,23.19
2022-09-05T21:10:55.020Z,23.17
2022-09-05T21:13:24.605Z,23.17
2022-09-05T21:15:54.237Z,23.17
2022-09-05T21:18:26.126Z,23.17
2022-09-05T21:21:03.353Z,23.16
2022-09-05T21:23:43.000Z,23.15
2022-09-05T21:26:24.271Z,23.16
2022-09-05T21:29:04.208Z,23.15
2022-09-05T21:31:32.655Z,23.15
2022-09-05T21:34:03.126Z,23.15
2022-09-05T21:36:33.697Z,23.16
2022-09-05T21:39:02.396Z,23.14
2022-09-05T21:41:32.264Z,23.15
2022-09-05T21:47:34.799Z,23.14
2022-09-05T21:47:48.685Z,23.14
2022-09-05T21:49:41.303Z,23.14
2022-09-05T21:52:09.447Z,23.14
2022-09-05T21:59:08.216Z,23.14
2022-09-05T21:59:28.690Z,23.12
2022-09-05T22:00:21.407Z,23.13
2022-09-05T22:02:49.820Z,23.13
2022-09-05T22:05:20.247Z,23.12
2022-09-05T22:07:48.880Z,23.12
2022-09-05T22:10:17.024Z,23.11
2022-09-05T22:12:48.820Z,23.11
2022-09-05T22:15:27.434Z,23.12
2022-09-05T22:18:16.766Z,23.12
2022-09-05T22:20:46.156Z,23.10
2022-09-05T22:23:21.633Z,23.12
2022-09-05T22:25:49.851Z,23.10
2022-09-05T22:28:20.919Z,23.10
2022-09-05T22:30:55.599Z,23.10
2022-09-05T22:33:25.107Z,23.10
2022-09-05T22:35:53.303Z,23.10
2022-09-05T22:38:21.563Z,23.11
2022-09-05T22:40:49.810Z,23.10
2022-09-05T22:43:19.377Z,23.10
2022-09-05T22:45:48.563Z,23.10
2022-09-05T22:48:16.669Z,23.10
2022-09-05T22:50:44.785Z,23.10
2022-09-05T22:53:12.879Z,23.10
2022-09-05T22:55:41.744Z,23.09
2022-09-05T22:58:11.953Z,23.09
2022-09-05T23:00:41.819Z,23.10
2022-09-05T23:03:10.126Z,23.09
2022-09-05T23:05:38.212Z,23.08
2022-09-05T23:08:06.920Z,23.09
2022-09-05T23:10:35.081Z,23.08
2022-09-05T23:13:07.499Z,23.08
2022-09-05T23:15:35.966Z,23.08
2022-09-05T23:18:05.866Z,23.07
2022-09-05T23:20:34.187Z,23.07
2022-09-05T23:23:03.940Z,23.08
2022-09-05T23:25:32.108Z,23.08
2022-09-05T23:28:00.224Z,23.07
2022-09-05T23:30:28.400Z,23.07
2022-09-05T23:32:56.464Z,23.06
2022-09-05T23:35:26.104Z,23.07
2022-09-05T23:37:54.204Z,23.06
2022-09-05T23:40:23.191Z,23.06
2022-09-05T23:42:53.065Z,23.07
2022-09-05T23:45:21.179Z,23.06
2022-09-05T23:47:49.281Z,23.06
2022-09-05T23:50:17.748Z,23.06
2022-09-05T23:52:47.317Z,23.06
2022-09-05T23:55:16.515Z,23.05
2022-09-05T23:57:44.644Z,23.06
